createdAt,value
2022-10-18T00:01:53.511Z,96915.25
2022-10-18T00:04:21.275Z,96811.03
2022-10-18T00:06:49.008Z,96896.25
2022-10-18T00:09:18.052Z,96893.38
2022-10-18T00:11:45.754Z,96889.66
2022-10-18T00:14:13.508Z,96869.84
2022-10-18T00:16:41.539Z,96855.00
2022-10-18T00:19:09.222Z,96864.56
2022-10-18T00:21:37.062Z,96774.94
2022-10-18T00:24:05.567Z,96905.84
2022-10-18T00:26:34.608Z,96894.22
2022-10-18T00:29:04.027Z,96893.09
2022-10-18T00:31:33.627Z,96904.72
2022-10-18T00:34:08.022Z,96901.31
2022-10-18T00:36:35.787Z,96741.50
2022-10-18T00:39:05.395Z,96815.25
2022-10-18T00:41:37.808Z,96897.28
2022-10-18T00:44:45.222Z,96894.34
2022-10-18T00:47:16.298Z,96835.03
2022-10-18T00:49:47.591Z,96897.75
2022-10-18T00:52:19.065Z,96859.66
2022-10-18T00:54:48.337Z,96897.50
2022-10-18T00:57:18.235Z,96886.41
2022-10-18T00:59:47.094Z,96817.97
2022-10-18T01:02:18.161Z,96879.09
2022-10-18T01:04:47.432Z,96878.09
2022-10-18T01:07:33.924Z,96873.31
2022-10-18T01:10:24.557Z,96877.28
2022-10-18T01:13:06.659Z,96875.72
2022-10-18T01:15:41.265Z,96845.00
2022-10-18T01:18:19.810Z,96866.69
2022-10-18T01:21:15.032Z,96876.22
2022-10-18T01:24:03.465Z,96879.66
2022-10-18T01:26:47.427Z,96867.47
2022-10-18T01:29:33.950Z,96756.94
2022-10-18T01:32:06.031Z,96878.81
2022-10-18T01:34:37.141Z,96882.22
2022-10-18T01:37:10.379Z,96881.66
2022-10-18T01:39:43.535Z,96881.41
2022-10-18T01:42:14.670Z,96875.84
2022-10-18T01:44:43.762Z,96862.38
2022-10-18T01:47:15.354Z,96751.25
2022-10-18T01:49:43.360Z,96819.44
2022-10-18T01:52:13.663Z,96893.25
2022-10-18T01:54:46.203Z,96884.28
2022-10-18T01:57:25.440Z,96767.06
2022-10-18T01:59:59.918Z,96885.91
2022-10-18T02:02:41.473Z,96781.66
2022-10-18T02:05:19.271Z,96864.94
2022-10-18T02:08:05.675Z,96879.75
2022-10-18T02:10:45.908Z,96863.06
2022-10-18T02:13:17.047Z,96868.03
2022-10-18T02:15:48.464Z,96855.31
2022-10-18T02:18:24.311Z,96880.97
2022-10-18T02:20:52.752Z,96873.34
2022-10-18T02:23:24.606Z,96869.09
2022-10-18T02:25:53.717Z,96875.25
2022-10-18T02:28:21.857Z,96877.13
2022-10-18T02:30:58.128Z,96881.81
2022-10-18T02:33:35.030Z,96881.59
2022-10-18T02:36:07.212Z,96798.56
2022-10-18T02:38:35.473Z,96875.03
2022-10-18T02:41:03.319Z,96761.84
2022-10-18T02:43:31.220Z,96804.41
2022-10-18T02:45:59.033Z,96883.78
2022-10-18T02:48:28.080Z,96888.53
2022-10-18T02:50:55.757Z,96882.94
2022-10-18T02:53:24.459Z,96893.50
2022-10-18T02:55:52.115Z,96887.16
2022-10-18T02:58:19.847Z,96892.44
2022-10-18T03:00:50.724Z,96884.75
2022-10-18T03:03:18.391Z,96877.25
2022-10-18T03:05:51.466Z,96854.81
2022-10-18T03:08:19.976Z,96869.59
2022-10-18T03:10:48.191Z,96892.34
2022-10-18T03:13:16.016Z,96878.56
2022-10-18T03:15:43.754Z,96889.63
2022-10-18T03:18:11.773Z,96885.66
2022-10-18T03:20:39.465Z,96894.38
2022-10-18T03:23:08.569Z,96904.41
2022-10-18T03:25:36.319Z,96879.19
2022-10-18T03:28:04.341Z,96842.97
2022-10-18T03:30:32.074Z,96888.22
2022-10-18T03:32:59.829Z,96899.06
2022-10-18T03:35:27.640Z,96896.50
2022-10-18T03:37:55.450Z,96820.75
2022-10-18T03:40:24.580Z,96796.03
2022-10-18T03:42:52.284Z,96803.81
2022-10-18T03:45:20.068Z,96905.41
2022-10-18T03:47:47.792Z,96907.25
2022-10-18T03:50:15.535Z,96905.94
2022-10-18T03:52:43.237Z,96790.72
2022-10-18T03:55:14.215Z,96910.16
2022-10-18T03:57:43.327Z,96779.84
2022-10-18T04:00:12.595Z,96811.25
2022-10-18T04:02:40.629Z,96906.16
2022-10-18T04:05:10.380Z,96897.41
2022-10-18T04:07:38.179Z,96808.22
2022-10-18T04:10:06.621Z,96782.31
2022-10-18T04:12:34.564Z,96856.53
2022-10-18T04:15:04.129Z,96916.47
2022-10-18T04:17:31.986Z,96911.72
2022-10-18T04:20:00.000Z,96817.19
2022-10-18T04:22:27.901Z,96861.38
2022-10-18T04:24:57.820Z,96782.06
2022-10-18T04:27:25.837Z,96797.19
2022-10-18T04:29:53.643Z,96913.78
2022-10-18T04:32:22.992Z,96895.44
2022-10-18T04:34:53.155Z,96749.53
2022-10-18T04:37:20.882Z,96774.91
2022-10-18T04:39:51.357Z,96873.47
2022-10-18T04:42:46.411Z,96902.69
2022-10-18T04:45:14.289Z,96867.75
2022-10-18T04:47:43.425Z,96871.50
2022-10-18T04:50:11.283Z,96895.56
2022-10-18T04:52:38.950Z,96801.25
2022-10-18T04:55:07.565Z,96763.38
2022-10-18T04:57:35.328Z,96816.97
2022-10-18T05:00:03.270Z,96790.84
2022-10-18T05:02:31.323Z,96885.94
2022-10-18T05:05:00.647Z,96893.09
2022-10-18T05:07:29.499Z,96901.03
2022-10-18T05:09:57.336Z,96772.59
2022-10-18T05:12:25.133Z,96849.84
2022-10-18T05:14:53.298Z,96908.69
2022-10-18T05:17:21.072Z,96822.38
2022-10-18T05:19:48.881Z,96867.63
2022-10-18T05:22:18.018Z,96821.66
2022-10-18T05:24:45.718Z,96836.97
2022-10-18T05:27:13.422Z,96874.59
2022-10-18T05:29:41.136Z,96853.13
2022-10-18T05:32:08.923Z,96879.91
2022-10-18T05:34:36.768Z,96834.09
2022-10-18T05:37:04.622Z,96874.09
2022-10-18T05:39:34.057Z,96886.28
2022-10-18T05:42:02.418Z,96815.03
2022-10-18T05:44:30.123Z,96734.75
2022-10-18T05:46:57.920Z,96899.25
2022-10-18T05:49:25.706Z,96892.88
2022-10-18T05:51:53.408Z,96678.00
2022-10-18T05:54:21.236Z,96903.00
2022-10-18T05:56:50.297Z,96879.66
2022-10-18T05:59:19.970Z,96881.81
2022-10-18T06:01:47.662Z,96867.50
2022-10-18T06:04:15.330Z,96872.31
2022-10-18T06:06:43.024Z,96796.66
2022-10-18T06:09:10.731Z,96912.59
2022-10-18T06:11:38.567Z,96912.06
2022-10-18T06:14:09.008Z,96895.16
2022-10-18T12:08:45.491Z,96829.75
2022-10-18T12:11:16.782Z,96808.97
2022-10-18T12:13:52.674Z,96837.13
2022-10-18T12:16:49.614Z,96828.91
2022-10-18T12:19:23.723Z,96787.69
2022-10-18T12:21:56.019Z,96823.69
2022-10-18T12:24:28.605Z,96834.41
2022-10-18T12:27:00.750Z,96822.00
2022-10-18T12:29:34.263Z,96794.13
2022-10-18T12:32:07.148Z,96806.69
2022-10-18T12:34:38.197Z,96810.06
2022-10-18T12:37:26.392Z,96819.03
2022-10-18T12:40:20.259Z,96811.38
2022-10-18T12:42:50.212Z,96787.91
2022-10-18T12:45:26.152Z,96753.47
2022-10-18T12:47:55.145Z,96790.94
2022-10-18T12:50:31.148Z,96807.72
2022-10-18T12:53:19.967Z,96747.69
2022-10-18T12:55:52.333Z,96810.88
2022-10-18T12:58:32.619Z,96812.13
2022-10-18T13:01:06.456Z,96756.00
2022-10-18T13:04:00.375Z,96803.03
2022-10-18T13:07:14.741Z,96809.03
2022-10-18T13:10:03.286Z,96796.72
2022-10-18T13:13:12.203Z,96780.97
2022-10-18T13:15:50.112Z,96802.50
2022-10-18T13:18:25.030Z,96774.13
2022-10-18T13:21:03.912Z,96778.94
2022-10-18T13:23:43.487Z,96780.03
2022-10-18T13:26:22.782Z,96790.25
2022-10-18T13:29:01.720Z,96775.34
2022-10-18T13:31:41.222Z,96797.34
2022-10-18T13:34:25.465Z,96801.47
2022-10-18T13:36:58.966Z,96795.44
2022-10-18T13:39:27.677Z,96788.38
2022-10-18T13:42:33.523Z,96791.56
2022-10-18T13:45:45.531Z,96799.47
2022-10-18T13:48:48.656Z,96787.78
2022-10-18T13:51:36.539Z,96768.00
2022-10-18T13:54:17.634Z,96796.13
2022-10-18T13:57:12.483Z,96774.34
2022-10-18T13:59:57.151Z,96783.88
2022-10-18T14:02:51.471Z,96794.31
2022-10-18T14:05:35.232Z,96800.00
2022-10-18T14:08:12.390Z,96731.03
2022-10-18T14:11:01.239Z,96807.13
2022-10-18T14:13:35.794Z,96785.94
2022-10-18T14:16:11.092Z,96735.13
2022-10-18T14:18:43.873Z,96778.72
2022-10-18T14:21:22.038Z,96759.47
2022-10-18T14:23:51.738Z,96803.84
2022-10-18T14:26:22.639Z,96812.25
2022-10-18T14:29:04.107Z,96787.84
2022-10-18T14:31:32.224Z,96738.47
2022-10-18T14:34:02.147Z,96738.00
2022-10-18T14:36:40.579Z,96783.41
2022-10-18T14:39:16.413Z,96790.28
2022-10-18T14:41:50.390Z,96794.03
2022-10-18T14:44:21.731Z,96765.59
2022-10-18T14:46:51.741Z,96754.31
2022-10-18T14:49:21.823Z,96742.84
2022-10-18T14:51:52.439Z,96801.78
2022-10-18T14:54:26.232Z,96774.13
2022-10-18T14:56:57.529Z,96741.09
2022-10-18T14:59:28.301Z,96764.13
2022-10-18T15:01:59.438Z,96799.22
2022-10-18T15:04:32.917Z,96802.50
2022-10-18T15:07:03.051Z,96800.31
2022-10-18T15:09:32.542Z,96796.09
2022-10-18T15:12:01.710Z,96811.34
2022-10-18T15:14:30.708Z,96799.41
2022-10-18T15:17:02.760Z,96806.31
2022-10-18T15:19:39.295Z,96810.06
2022-10-18T15:25:18.213Z,96794.50
2022-10-18T15:27:48.665Z,96813.72
2022-10-18T15:30:24.019Z,96817.00
2022-10-18T15:32:54.537Z,96816.03
2022-10-18T15:35:27.062Z,96810.22
2022-10-18T15:37:56.988Z,96819.19
2022-10-18T15:40:38.996Z,96770.56
2022-10-18T15:43:22.933Z,96821.09
2022-10-18T15:45:53.134Z,96817.47
2022-10-18T15:48:25.088Z,96793.38
2022-10-18T15:50:56.681Z,96794.00
2022-10-18T15:53:32.551Z,96754.66
2022-10-18T15:56:03.747Z,96820.13
2022-10-18T15:58:40.022Z,96771.34
2022-10-18T16:01:16.519Z,96767.06
2022-10-18T16:03:46.545Z,96797.59
2022-10-18T16:06:18.269Z,96734.41
2022-10-18T16:08:48.531Z,96828.88
2022-10-18T16:11:18.170Z,96774.25
2022-10-18T16:13:46.763Z,96816.88
2022-10-18T16:16:17.025Z,96829.44
2022-10-18T16:18:45.360Z,96833.97
2022-10-18T16:21:33.286Z,96812.09
2022-10-18T16:24:13.254Z,96813.66
2022-10-18T16:26:46.278Z,96757.31
2022-10-18T16:29:16.566Z,96733.81
2022-10-18T16:31:46.975Z,96794.56
2022-10-18T16:34:16.215Z,96861.03
2022-10-18T16:36:45.820Z,96862.22
2022-10-18T16:39:17.062Z,96803.75
2022-10-18T16:41:45.315Z,96760.75
2022-10-18T16:44:13.445Z,96804.03
2022-10-18T16:46:41.995Z,96844.16
2022-10-18T16:51:48.775Z,96845.47
2022-10-18T16:54:22.821Z,96862.84
2022-10-18T16:56:51.308Z,96843.78
2022-10-18T16:59:24.566Z,96815.13
2022-10-18T17:01:52.440Z,96804.91
2022-10-18T17:04:20.311Z,96850.53
2022-10-18T17:06:50.005Z,96867.63
2022-10-18T17:09:18.178Z,96826.81
2022-10-18T17:11:46.906Z,96842.94
2022-10-18T17:14:15.154Z,96884.72
2022-10-18T17:17:17.799Z,96792.88
2022-10-18T17:19:47.420Z,96789.25
2022-10-18T17:22:36.823Z,96851.94
2022-10-18T17:25:10.330Z,96788.34
2022-10-18T17:32:12.882Z,96853.06
2022-10-18T17:34:47.530Z,96856.50
2022-10-18T17:37:18.737Z,96842.00
2022-10-18T17:39:48.286Z,96822.69
2022-10-18T17:42:16.623Z,96860.63
2022-10-18T17:44:46.210Z,96900.13
2022-10-18T17:47:14.237Z,96835.00
2022-10-18T17:49:43.787Z,96848.22
2022-10-18T17:52:12.116Z,96860.34
2022-10-18T17:54:40.154Z,96869.91
2022-10-18T17:57:18.968Z,96832.31
2022-10-18T17:59:48.608Z,96886.69
2022-10-18T18:02:16.631Z,96906.44
2022-10-18T18:04:44.755Z,96862.19
2022-10-18T18:07:12.850Z,96853.34
2022-10-18T18:09:41.709Z,96890.47
2022-10-18T18:12:11.424Z,96915.66
2022-10-18T18:14:39.405Z,96867.25
2022-10-18T18:17:07.178Z,96910.31
2022-10-18T18:19:34.987Z,96914.06
2022-10-18T18:22:03.640Z,96879.66
2022-10-18T18:24:31.581Z,96882.81
2022-10-18T18:26:59.354Z,96927.72
2022-10-18T18:29:29.229Z,96933.97
2022-10-18T18:31:57.028Z,96920.56
2022-10-18T18:34:24.791Z,96899.53
2022-10-18T18:36:53.399Z,96924.34
2022-10-18T18:39:23.635Z,96914.56
2022-10-18T18:41:52.844Z,96914.88
2022-10-18T18:44:21.640Z,96907.28
2022-10-18T18:46:50.786Z,96920.19
2022-10-18T18:49:18.622Z,96912.66
2022-10-18T18:51:46.742Z,96903.69
2022-10-18T18:54:15.959Z,96937.16
2022-10-18T18:56:43.878Z,96932.06
2022-10-18T18:59:13.891Z,96912.59
2022-10-18T19:01:42.665Z,96909.00
2022-10-18T19:04:11.910Z,96931.78
2022-10-18T19:06:41.833Z,96928.06
2022-10-18T19:09:18.652Z,96930.72
2022-10-18T19:11:47.672Z,96910.38
2022-10-18T19:14:15.823Z,96921.22
2022-10-18T19:16:47.914Z,96901.50
2022-10-18T19:19:19.174Z,96938.28
2022-10-18T19:21:49.093Z,96934.75
2022-10-18T19:24:19.425Z,96933.69
2022-10-18T19:26:48.998Z,96912.03
2022-10-18T19:29:21.275Z,96918.53
2022-10-18T19:31:55.002Z,96912.34
2022-10-18T19:34:26.316Z,96924.34
2022-10-18T19:36:54.159Z,96891.22
2022-10-18T19:39:23.274Z,96916.06
2022-10-18T19:41:55.047Z,96930.53
2022-10-18T19:44:24.080Z,96925.72
2022-10-18T19:46:51.963Z,96926.16
2022-10-18T19:49:19.722Z,96909.47
2022-10-18T19:51:49.153Z,96929.38
2022-10-18T19:54:17.396Z,96912.75
2022-10-18T19:56:45.207Z,96934.97
2022-10-18T19:59:14.068Z,96919.75
2022-10-18T20:01:42.227Z,96929.84
2022-10-18T20:04:10.763Z,96939.09
2022-10-18T20:06:39.546Z,96940.41
2022-10-18T20:09:13.357Z,96898.47
2022-10-18T20:11:44.084Z,96938.44
